sensor_id;sensor_type;location;lat;lon;timestamp;P1;durP1;ratioP1;P2;durP2;ratioP2
65871;SDS011;52653;50.080;21.992;2022-12-05T00:01:27;20.40;;;11.90;;
65871;SDS011;52653;50.080;21.992;2022-12-05T00:04:01;18.60;;;11.20;;
65871;SDS011;52653;50.080;21.992;2022-12-05T00:06:35;19.80;;;11.50;;
65871;SDS011;52653;50.080;21.992;2022-12-05T00:09:09;20.50;;;12.20;;
65871;SDS011;52653;50.080;21.992;2022-12-05T00:11:43;14.90;;;9.40;;
65871;SDS011;52653;50.080;21.992;2022-12-05T00:14:15;18.00;;;11.60;;
65871;SDS011;52653;50.080;21.992;2022-12-05T00:16:47;18.00;;;12.20;;
65871;SDS011;52653;50.080;21.992;2022-12-05T00:19:18;19.40;;;12.90;;
65871;SDS011;52653;50.080;21.992;2022-12-05T00:21:50;22.60;;;13.40;;
65871;SDS011;52653;50.080;21.992;2022-12-05T00:24:23;20.30;;;11.60;;
65871;SDS011;52653;50.080;21.992;2022-12-05T00:26:55;19.50;;;11.40;;
65871;SDS011;52653;50.080;21.992;2022-12-05T00:29:27;19.40;;;12.70;;
65871;SDS011;52653;50.080;21.992;2022-12-05T00:31:58;17.90;;;10.80;;
65871;SDS011;52653;50.080;21.992;2022-12-05T00:34:30;16.80;;;10.70;;
65871;SDS011;52653;50.080;21.992;2022-12-05T00:37:02;18.70;;;11.70;;
65871;SDS011;52653;50.080;21.992;2022-12-05T00:39:34;17.60;;;10.70;;
65871;SDS011;52653;50.080;21.992;2022-12-05T00:42:06;18.20;;;12.00;;
65871;SDS011;52653;50.080;21.992;2022-12-05T00:44:38;20.00;;;12.30;;
65871;SDS011;52653;50.080;21.992;2022-12-05T00:47:10;20.80;;;12.50;;
65871;SDS011;52653;50.080;21.992;2022-12-05T00:49:42;19.50;;;12.30;;
65871;SDS011;52653;50.080;21.992;2022-12-05T00:52:14;19.00;;;10.80;;
65871;SDS011;52653;50.080;21.992;2022-12-05T00:54:46;19.40;;;10.70;;
65871;SDS011;52653;50.080;21.992;2022-12-05T00:57:18;17.60;;;11.20;;
65871;SDS011;52653;50.080;21.992;2022-12-05T00:59:50;17.90;;;11.40;;
65871;SDS011;52653;50.080;21.992;2022-12-05T01:02:22;17.80;;;11.40;;
65871;SDS011;52653;50.080;21.992;2022-12-05T01:04:54;18.10;;;10.80;;
65871;SDS011;52653;50.080;21.992;2022-12-05T01:07:26;18.30;;;11.40;;
65871;SDS011;52653;50.080;21.992;2022-12-05T01:09:58;18.40;;;12.50;;
65871;SDS011;52653;50.080;21.992;2022-12-05T01:12:30;18.60;;;11.70;;
65871;SDS011;52653;50.080;21.992;2022-12-05T01:15:02;20.10;;;12.70;;
65871;SDS011;52653;50.080;21.992;2022-12-05T01:17:35;20.80;;;12.40;;
65871;SDS011;52653;50.080;21.992;2022-12-05T01:20:08;18.60;;;11.90;;
65871;SDS011;52653;50.080;21.992;2022-12-05T01:22:40;17.80;;;11.60;;
65871;SDS011;52653;50.080;21.992;2022-12-05T01:25:12;18.10;;;11.00;;
65871;SDS011;52653;50.080;21.992;2022-12-05T01:27:44;17.90;;;11.50;;
65871;SDS011;52653;50.080;21.992;2022-12-05T01:30:16;18.30;;;10.60;;
65871;SDS011;52653;50.080;21.992;2022-12-05T01:32:48;19.20;;;11.50;;
65871;SDS011;52653;50.080;21.992;2022-12-05T01:35:20;18.70;;;11.20;;
65871;SDS011;52653;50.080;21.992;2022-12-05T01:37:52;17.20;;;11.00;;
65871;SDS011;52653;50.080;21.992;2022-12-05T01:40:24;19.20;;;11.80;;
65871;SDS011;52653;50.080;21.992;2022-12-05T01:42:56;21.30;;;13.10;;
65871;SDS011;52653;50.080;21.992;2022-12-05T01:45:31;21.70;;;13.70;;
65871;SDS011;52653;50.080;21.992;2022-12-05T01:48:06;21.20;;;13.70;;
65871;SDS011;52653;50.080;21.992;2022-12-05T01:50:41;19.70;;;12.00;;
65871;SDS011;52653;50.080;21.992;2022-12-05T01:53:13;19.90;;;11.70;;
65871;SDS011;52653;50.080;21.992;2022-12-05T01:55:46;20.90;;;12.70;;
65871;SDS011;52653;50.080;21.992;2022-12-05T01:58:20;21.10;;;12.80;;
65871;SDS011;52653;50.080;21.992;2022-12-05T02:00:52;19.90;;;11.80;;
65871;SDS011;52653;50.080;21.992;2022-12-05T02:03:24;18.60;;;11.50;;
65871;SDS011;52653;50.080;21.992;2022-12-05T02:05:56;20.30;;;12.50;;
65871;SDS011;52653;50.080;21.992;2022-12-05T02:08:29;18.20;;;11.00;;
65871;SDS011;52653;50.080;21.992;2022-12-05T02:11:01;19.00;;;12.30;;
65871;SDS011;52653;50.080;21.992;2022-12-05T02:13:40;20.00;;;12.10;;
65871;SDS011;52653;50.080;21.992;2022-12-05T02:16:22;21.30;;;13.80;;
65871;SDS011;52653;50.080;21.992;2022-12-05T02:19:07;20.50;;;12.50;;
65871;SDS011;52653;50.080;21.992;2022-12-05T02:22:07;22.00;;;13.10;;
65871;SDS011;52653;50.080;21.992;2022-12-05T02:25:02;20.20;;;12.90;;
65871;SDS011;52653;50.080;21.992;2022-12-05T02:27:57;22.70;;;12.20;;
65871;SDS011;52653;50.080;21.992;2022-12-05T02:30:44;20.20;;;12.50;;
65871;SDS011;52653;50.080;21.992;2022-12-05T02:33:21;20.00;;;12.80;;
65871;SDS011;52653;50.080;21.992;2022-12-05T02:36:00;18.90;;;11.20;;
65871;SDS011;52653;50.080;21.992;2022-12-05T02:41:13;21.20;;;12.50;;
65871;SDS011;52653;50.080;21.992;2022-12-05T02:43:53;20.20;;;12.10;;
65871;SDS011;52653;50.080;21.992;2022-12-05T02:46:31;23.70;;;14.90;;
65871;SDS011;52653;50.080;21.992;2022-12-05T02:49:07;24.40;;;14.30;;
65871;SDS011;52653;50.080;21.992;2022-12-05T02:51:43;24.00;;;14.20;;
65871;SDS011;52653;50.080;21.992;2022-12-05T02:54:19;24.00;;;14.40;;
65871;SDS011;52653;50.080;21.992;2022-12-05T02:56:55;23.50;;;14.40;;
65871;SDS011;52653;50.080;21.992;2022-12-05T02:59:29;23.40;;;13.50;;
65871;SDS011;52653;50.080;21.992;2022-12-05T03:02:00;22.40;;;13.30;;
65871;SDS011;52653;50.080;21.992;2022-12-05T03:04:32;20.20;;;12.50;;
65871;SDS011;52653;50.080;21.992;2022-12-05T03:07:05;20.60;;;13.00;;
65871;SDS011;52653;50.080;21.992;2022-12-05T03:09:40;21.70;;;13.40;;
65871;SDS011;52653;50.080;21.992;2022-12-05T03:12:17;21.80;;;13.70;;
65871;SDS011;52653;50.080;21.992;2022-12-05T03:14:52;23.50;;;14.40;;
65871;SDS011;52653;50.080;21.992;2022-12-05T03:17:29;23.90;;;15.40;;
65871;SDS011;52653;50.080;21.992;2022-12-05T03:20:05;25.20;;;15.90;;
65871;SDS011;52653;50.080;21.992;2022-12-05T03:22:41;26.10;;;16.30;;
65871;SDS011;52653;50.080;21.992;2022-12-05T03:25:17;25.10;;;15.10;;
65871;SDS011;52653;50.080;21.992;2022-12-05T03:27:54;22.70;;;13.80;;
65871;SDS011;52653;50.080;21.992;2022-12-05T03:30:34;21.60;;;13.00;;
65871;SDS011;52653;50.080;21.992;2022-12-05T03:33:09;23.20;;;14.20;;
65871;SDS011;52653;50.080;21.992;2022-12-05T03:35:45;24.00;;;13.80;;
65871;SDS011;52653;50.080;21.992;2022-12-05T03:38:24;21.50;;;12.50;;
65871;SDS011;52653;50.080;21.992;2022-12-05T03:41:02;20.60;;;12.60;;
65871;SDS011;52653;50.080;21.992;2022-12-05T03:43:41;20.30;;;13.00;;
65871;SDS011;52653;50.080;21.992;2022-12-05T03:46:22;21.80;;;14.20;;
65871;SDS011;52653;50.080;21.992;2022-12-05T03:48:56;23.10;;;14.70;;
65871;SDS011;52653;50.080;21.992;2022-12-05T03:51:33;25.20;;;15.30;;
65871;SDS011;52653;50.080;21.992;2022-12-05T03:54:09;24.20;;;14.20;;
65871;SDS011;52653;50.080;21.992;2022-12-05T03:56:48;22.70;;;14.20;;
65871;SDS011;52653;50.080;21.992;2022-12-05T03:59:25;21.70;;;13.50;;
65871;SDS011;52653;50.080;21.992;2022-12-05T04:02:03;20.40;;;12.80;;
65871;SDS011;52653;50.080;21.992;2022-12-05T04:07:14;20.60;;;12.90;;
65871;SDS011;52653;50.080;21.992;2022-12-05T04:09:48;20.80;;;12.80;;
65871;SDS011;52653;50.080;21.992;2022-12-05T04:12:25;23.00;;;13.60;;
65871;SDS011;52653;50.080;21.992;2022-12-05T04:15:01;23.70;;;14.20;;
65871;SDS011;52653;50.080;21.992;2022-12-05T04:17:38;24.90;;;14.30;;
65871;SDS011;52653;50.080;21.992;2022-12-05T04:20:22;22.30;;;13.80;;
65871;SDS011;52653;50.080;21.992;2022-12-05T04:23:17;23.30;;;13.90;;
65871;SDS011;52653;50.080;21.992;2022-12-05T04:25:50;21.30;;;13.30;;
65871;SDS011;52653;50.080;21.992;2022-12-05T04:28:33;21.30;;;12.80;;
65871;SDS011;52653;50.080;21.992;2022-12-05T04:31:09;21.90;;;13.10;;
65871;SDS011;52653;50.080;21.992;2022-12-05T04:33:47;21.60;;;13.80;;
65871;SDS011;52653;50.080;21.992;2022-12-05T04:36:22;19.00;;;11.90;;
65871;SDS011;52653;50.080;21.992;2022-12-05T04:39:02;21.70;;;12.80;;
65871;SDS011;52653;50.080;21.992;2022-12-05T04:41:46;22.90;;;13.60;;
65871;SDS011;52653;50.080;21.992;2022-12-05T04:44:24;22.60;;;13.80;;
65871;SDS011;52653;50.080;21.992;2022-12-05T04:47:01;23.00;;;15.00;;
65871;SDS011;52653;50.080;21.992;2022-12-05T04:49:36;24.00;;;14.70;;
65871;SDS011;52653;50.080;21.992;2022-12-05T04:52:10;24.10;;;13.30;;
65871;SDS011;52653;50.080;21.992;2022-12-05T04:54:44;23.40;;;13.50;;
65871;SDS011;52653;50.080;21.992;2022-12-05T04:57:21;23.50;;;13.90;;
65871;SDS011;52653;50.080;21.992;2022-12-05T04:59:57;19.80;;;12.90;;
65871;SDS011;52653;50.080;21.992;2022-12-05T05:02:30;22.50;;;13.80;;
65871;SDS011;52653;50.080;21.992;2022-12-05T05:05:08;23.50;;;13.90;;
65871;SDS011;52653;50.080;21.992;2022-12-05T05:07:43;23.10;;;14.20;;
65871;SDS011;52653;50.080;21.992;2022-12-05T05:10:18;23.60;;;14.70;;
65871;SDS011;52653;50.080;21.992;2022-12-05T05:12:56;23.80;;;14.50;;
65871;SDS011;52653;50.080;21.992;2022-12-05T05:15:28;25.00;;;15.80;;
65871;SDS011;52653;50.080;21.992;2022-12-05T05:18:00;27.80;;;16.50;;
65871;SDS011;52653;50.080;21.992;2022-12-05T05:20:32;23.20;;;14.90;;
65871;SDS011;52653;50.080;21.992;2022-12-05T05:23:04;21.70;;;13.70;;
65871;SDS011;52653;50.080;21.992;2022-12-05T05:25:36;22.70;;;14.70;;
65871;SDS011;52653;50.080;21.992;2022-12-05T05:28:09;23.60;;;14.80;;
65871;SDS011;52653;50.080;21.992;2022-12-05T05:30:41;21.80;;;14.00;;
65871;SDS011;52653;50.080;21.992;2022-12-05T05:33:13;22.80;;;14.10;;
65871;SDS011;52653;50.080;21.992;2022-12-05T05:35:45;25.50;;;14.80;;
65871;SDS011;52653;50.080;21.992;2022-12-05T05:38:17;24.60;;;15.90;;
65871;SDS011;52653;50.080;21.992;2022-12-05T05:40:49;28.80;;;15.60;;
65871;SDS011;52653;50.080;21.992;2022-12-05T05:43:21;26.50;;;15.40;;
65871;SDS011;52653;50.080;21.992;2022-12-05T05:45:53;21.50;;;13.80;;
65871;SDS011;52653;50.080;21.992;2022-12-05T05:48:25;25.60;;;14.50;;
65871;SDS011;52653;50.080;21.992;2022-12-05T05:50:58;24.20;;;13.80;;
65871;SDS011;52653;50.080;21.992;2022-12-05T05:53:30;22.60;;;14.20;;
65871;SDS011;52653;50.080;21.992;2022-12-05T05:56:03;22.70;;;14.30;;
65871;SDS011;52653;50.080;21.992;2022-12-05T05:58:37;24.80;;;14.30;;
65871;SDS011;52653;50.080;21.992;2022-12-05T06:01:10;23.00;;;14.00;;
65871;SDS011;52653;50.080;21.992;2022-12-05T06:03:43;24.80;;;15.00;;
65871;SDS011;52653;50.080;21.992;2022-12-05T06:06:15;24.50;;;14.80;;
65871;SDS011;52653;50.080;21.992;2022-12-05T06:08:48;26.00;;;15.70;;
65871;SDS011;52653;50.080;21.992;2022-12-05T06:11:21;26.50;;;16.20;;
65871;SDS011;52653;50.080;21.992;2022-12-05T06:13:55;24.70;;;14.60;;
65871;SDS011;52653;50.080;21.992;2022-12-05T06:16:30;25.50;;;14.50;;
65871;SDS011;52653;50.080;21.992;2022-12-05T06:19:02;22.40;;;13.70;;
65871;SDS011;52653;50.080;21.992;2022-12-05T06:21:34;22.30;;;13.60;;
65871;SDS011;52653;50.080;21.992;2022-12-05T06:24:06;23.90;;;14.00;;
65871;SDS011;52653;50.080;21.992;2022-12-05T06:26:38;24.40;;;14.50;;
65871;SDS011;52653;50.080;21.992;2022-12-05T06:29:11;22.50;;;14.30;;
65871;SDS011;52653;50.080;21.992;2022-12-05T06:31:43;22.70;;;14.30;;
65871;SDS011;52653;50.080;21.992;2022-12-05T06:34:15;21.60;;;13.70;;
65871;SDS011;52653;50.080;21.992;2022-12-05T06:36:47;27.30;;;16.00;;
65871;SDS011;52653;50.080;21.992;2022-12-05T06:39:19;24.40;;;15.10;;
65871;SDS011;52653;50.080;21.992;2022-12-05T06:41:51;25.20;;;15.50;;
65871;SDS011;52653;50.080;21.992;2022-12-05T06:44:22;25.90;;;17.00;;
65871;SDS011;52653;50.080;21.992;2022-12-05T06:46:56;27.60;;;16.20;;
65871;SDS011;52653;50.080;21.992;2022-12-05T06:49:28;27.80;;;17.20;;
65871;SDS011;52653;50.080;21.992;2022-12-05T06:52:06;26.40;;;15.90;;
65871;SDS011;52653;50.080;21.992;2022-12-05T06:54:38;23.50;;;15.60;;
65871;SDS011;52653;50.080;21.992;2022-12-05T06:57:09;23.40;;;13.90;;
65871;SDS011;52653;50.080;21.992;2022-12-05T06:59:42;21.80;;;13.70;;
65871;SDS011;52653;50.080;21.992;2022-12-05T07:02:14;26.60;;;16.00;;
65871;SDS011;52653;50.080;21.992;2022-12-05T07:04:47;27.60;;;15.60;;
65871;SDS011;52653;50.080;21.992;2022-12-05T07:07:19;27.30;;;15.50;;
65871;SDS011;52653;50.080;21.992;2022-12-05T07:09:50;26.70;;;16.70;;
65871;SDS011;52653;50.080;21.992;2022-12-05T07:12:23;27.70;;;16.20;;
65871;SDS011;52653;50.080;21.992;2022-12-05T07:14:55;28.30;;;17.30;;
65871;SDS011;52653;50.080;21.992;2022-12-05T07:17:27;27.50;;;17.40;;
65871;SDS011;52653;50.080;21.992;2022-12-05T07:19:58;25.30;;;14.30;;
65871;SDS011;52653;50.080;21.992;2022-12-05T07:22:30;25.80;;;15.70;;
65871;SDS011;52653;50.080;21.992;2022-12-05T07:25:04;22.90;;;14.70;;
65871;SDS011;52653;50.080;21.992;2022-12-05T07:27:37;25.70;;;15.30;;
65871;SDS011;52653;50.080;21.992;2022-12-05T07:30:10;25.50;;;15.60;;
65871;SDS011;52653;50.080;21.992;2022-12-05T07:32:43;25.60;;;15.90;;
65871;SDS011;52653;50.080;21.992;2022-12-05T07:35:14;26.90;;;16.50;;
65871;SDS011;52653;50.080;21.992;2022-12-05T07:37:47;28.10;;;16.90;;
65871;SDS011;52653;50.080;21.992;2022-12-05T07:40:18;28.50;;;16.30;;
65871;SDS011;52653;50.080;21.992;2022-12-05T07:42:50;26.00;;;16.90;;
65871;SDS011;52653;50.080;21.992;2022-12-05T07:45:22;28.00;;;17.30;;
65871;SDS011;52653;50.080;21.992;2022-12-05T07:47:54;24.70;;;15.00;;
65871;SDS011;52653;50.080;21.992;2022-12-05T07:50:26;23.60;;;15.90;;
65871;SDS011;52653;50.080;21.992;2022-12-05T07:52:58;26.20;;;16.30;;
65871;SDS011;52653;50.080;21.992;2022-12-05T07:55:30;28.40;;;16.20;;
65871;SDS011;52653;50.080;21.992;2022-12-05T07:58:02;26.10;;;15.60;;
65871;SDS011;52653;50.080;21.992;2022-12-05T08:00:34;26.50;;;16.00;;
65871;SDS011;52653;50.080;21.992;2022-12-05T08:03:06;25.50;;;15.90;;
65871;SDS011;52653;50.080;21.992;2022-12-05T08:05:38;27.60;;;16.20;;
65871;SDS011;52653;50.080;21.992;2022-12-05T08:08:10;29.80;;;17.70;;
65871;SDS011;52653;50.080;21.992;2022-12-05T08:10:42;28.70;;;18.10;;
65871;SDS011;52653;50.080;21.992;2022-12-05T08:13:14;27.70;;;17.70;;
65871;SDS011;52653;50.080;21.992;2022-12-05T08:15:46;27.40;;;17.60;;
65871;SDS011;52653;50.080;21.992;2022-12-05T08:18:18;27.80;;;17.10;;
65871;SDS011;52653;50.080;21.992;2022-12-05T08:20:59;27.20;;;17.20;;
65871;SDS011;52653;50.080;21.992;2022-12-05T08:23:32;26.60;;;16.90;;
65871;SDS011;52653;50.080;21.992;2022-12-05T08:26:07;25.30;;;15.40;;
65871;SDS011;52653;50.080;21.992;2022-12-05T08:28:40;24.30;;;14.80;;
65871;SDS011;52653;50.080;21.992;2022-12-05T08:31:14;28.30;;;17.00;;
65871;SDS011;52653;50.080;21.992;2022-12-05T08:33:47;24.40;;;17.20;;
65871;SDS011;52653;50.080;21.992;2022-12-05T08:36:27;28.40;;;19.10;;
65871;SDS011;52653;50.080;21.992;2022-12-05T08:39:00;25.80;;;16.20;;
65871;SDS011;52653;50.080;21.992;2022-12-05T08:41:34;25.10;;;15.70;;
65871;SDS011;52653;50.080;21.992;2022-12-05T08:44:06;25.10;;;14.80;;
65871;SDS011;52653;50.080;21.992;2022-12-05T08:46:45;25.00;;;14.40;;
65871;SDS011;52653;50.080;21.992;2022-12-05T08:49:18;27.20;;;16.00;;
65871;SDS011;52653;50.080;21.992;2022-12-05T08:51:50;29.00;;;16.80;;
65871;SDS011;52653;50.080;21.992;2022-12-05T08:54:22;26.60;;;18.10;;
65871;SDS011;52653;50.080;21.992;2022-12-05T08:56:54;28.00;;;17.80;;
65871;SDS011;52653;50.080;21.992;2022-12-05T08:59:27;29.00;;;20.10;;
65871;SDS011;52653;50.080;21.992;2022-12-05T09:01:59;28.30;;;18.40;;
65871;SDS011;52653;50.080;21.992;2022-12-05T09:04:31;28.80;;;17.30;;
65871;SDS011;52653;50.080;21.992;2022-12-05T09:07:03;30.00;;;17.80;;
65871;SDS011;52653;50.080;21.992;2022-12-05T09:09:36;26.20;;;16.10;;
65871;SDS011;52653;50.080;21.992;2022-12-05T09:12:08;25.40;;;17.20;;
65871;SDS011;52653;50.080;21.992;2022-12-05T09:14:41;29.70;;;16.90;;
65871;SDS011;52653;50.080;21.992;2022-12-05T09:17:13;26.50;;;17.50;;
65871;SDS011;52653;50.080;21.992;2022-12-05T09:19:45;28.60;;;18.40;;
65871;SDS011;52653;50.080;21.992;2022-12-05T09:22:22;30.10;;;19.60;;
65871;SDS011;52653;50.080;21.992;2022-12-05T09:24:54;27.40;;;18.20;;
65871;SDS011;52653;50.080;21.992;2022-12-05T09:27:26;30.80;;;19.60;;
65871;SDS011;52653;50.080;21.992;2022-12-05T09:29:58;31.00;;;16.90;;
65871;SDS011;52653;50.080;21.992;2022-12-05T09:32:30;25.10;;;15.70;;
65871;SDS011;52653;50.080;21.992;2022-12-05T09:35:02;26.40;;;16.60;;
65871;SDS011;52653;50.080;21.992;2022-12-05T09:37:34;26.90;;;17.50;;
65871;SDS011;52653;50.080;21.992;2022-12-05T09:40:10;28.40;;;17.40;;
65871;SDS011;52653;50.080;21.992;2022-12-05T09:42:54;30.00;;;18.90;;
65871;SDS011;52653;50.080;21.992;2022-12-05T09:45:34;32.30;;;19.80;;
65871;SDS011;52653;50.080;21.992;2022-12-05T09:48:10;30.60;;;21.30;;
65871;SDS011;52653;50.080;21.992;2022-12-05T09:50:45;30.20;;;19.80;;
65871;SDS011;52653;50.080;21.992;2022-12-05T09:53:23;30.10;;;20.40;;
65871;SDS011;52653;50.080;21.992;2022-12-05T09:56:01;31.40;;;20.10;;
65871;SDS011;52653;50.080;21.992;2022-12-05T09:58:39;28.60;;;19.10;;
65871;SDS011;52653;50.080;21.992;2022-12-05T10:01:28;28.80;;;19.80;;
65871;SDS011;52653;50.080;21.992;2022-12-05T10:04:18;29.70;;;19.30;;
65871;SDS011;52653;50.080;21.992;2022-12-05T10:07:00;28.20;;;17.30;;
65871;SDS011;52653;50.080;21.992;2022-12-05T10:09:41;30.60;;;19.10;;
65871;SDS011;52653;50.080;21.992;2022-12-05T10:12:29;32.80;;;19.50;;
65871;SDS011;52653;50.080;21.992;2022-12-05T10:15:16;32.00;;;20.10;;
65871;SDS011;52653;50.080;21.992;2022-12-05T10:17:57;31.40;;;20.60;;
65871;SDS011;52653;50.080;21.992;2022-12-05T10:20:33;30.70;;;20.60;;
65871;SDS011;52653;50.080;21.992;2022-12-05T10:23:11;32.90;;;20.70;;
65871;SDS011;52653;50.080;21.992;2022-12-05T10:26:08;28.50;;;18.70;;
65871;SDS011;52653;50.080;21.992;2022-12-05T10:28:46;33.90;;;19.10;;
65871;SDS011;52653;50.080;21.992;2022-12-05T10:31:22;25.60;;;17.40;;
65871;SDS011;52653;50.080;21.992;2022-12-05T10:34:02;28.80;;;19.30;;
65871;SDS011;52653;50.080;21.992;2022-12-05T10:36:39;34.80;;;22.10;;
65871;SDS011;52653;50.080;21.992;2022-12-05T10:39:13;32.50;;;21.70;;
65871;SDS011;52653;50.080;21.992;2022-12-05T10:41:45;34.70;;;22.20;;
65871;SDS011;52653;50.080;21.992;2022-12-05T10:44:17;31.80;;;21.80;;
65871;SDS011;52653;50.080;21.992;2022-12-05T10:46:49;31.60;;;20.60;;
65871;SDS011;52653;50.080;21.992;2022-12-05T10:49:22;30.40;;;19.10;;
65871;SDS011;52653;50.080;21.992;2022-12-05T10:51:55;32.50;;;20.30;;
65871;SDS011;52653;50.080;21.992;2022-12-05T10:54:29;28.40;;;17.80;;
65871;SDS011;52653;50.080;21.992;2022-12-05T10:57:09;29.30;;;19.00;;
65871;SDS011;52653;50.080;21.992;2022-12-05T10:59:51;31.40;;;21.30;;
65871;SDS011;52653;50.080;21.992;2022-12-05T11:02:26;33.40;;;21.60;;
65871;SDS011;52653;50.080;21.992;2022-12-05T11:05:00;33.90;;;21.30;;
65871;SDS011;52653;50.080;21.992;2022-12-05T11:07:35;37.00;;;25.40;;
65871;SDS011;52653;50.080;21.992;2022-12-05T11:10:20;32.60;;;21.20;;
65871;SDS011;52653;50.080;21.992;2022-12-05T11:12:55;31.00;;;20.50;;
65871;SDS011;52653;50.080;21.992;2022-12-05T11:15:29;30.40;;;20.40;;
65871;SDS011;52653;50.080;21.992;2022-12-05T11:21:07;29.00;;;18.70;;
65871;SDS011;52653;50.080;21.992;2022-12-05T11:23:41;28.00;;;17.30;;
65871;SDS011;52653;50.080;21.992;2022-12-05T11:26:17;26.80;;;17.80;;
65871;SDS011;52653;50.080;21.992;2022-12-05T11:29:03;28.10;;;17.80;;
65871;SDS011;52653;50.080;21.992;2022-12-05T11:31:56;27.80;;;18.20;;
65871;SDS011;52653;50.080;21.992;2022-12-05T11:34:30;28.50;;;18.70;;
65871;SDS011;52653;50.080;21.992;2022-12-05T11:37:11;30.40;;;20.30;;
65871;SDS011;52653;50.080;21.992;2022-12-05T11:39:49;29.30;;;18.40;;
65871;SDS011;52653;50.080;21.992;2022-12-05T11:42:24;31.90;;;20.20;;
65871;SDS011;52653;50.080;21.992;2022-12-05T11:45:08;31.70;;;19.10;;
65871;SDS011;52653;50.080;21.992;2022-12-05T11:47:58;30.10;;;19.10;;
65871;SDS011;52653;50.080;21.992;2022-12-05T11:50:44;30.40;;;20.10;;
65871;SDS011;52653;50.080;21.992;2022-12-05T11:53:26;30.40;;;20.00;;
65871;SDS011;52653;50.080;21.992;2022-12-05T11:56:11;32.60;;;20.80;;
65871;SDS011;52653;50.080;21.992;2022-12-05T11:58:59;32.30;;;20.60;;
65871;SDS011;52653;50.080;21.992;2022-12-05T12:01:50;28.90;;;20.00;;
65871;SDS011;52653;50.080;21.992;2022-12-05T12:04:35;31.60;;;19.10;;
65871;SDS011;52653;50.080;21.992;2022-12-05T12:07:30;31.20;;;20.50;;
65871;SDS011;52653;50.080;21.992;2022-12-05T12:10:16;31.10;;;20.00;;
65871;SDS011;52653;50.080;21.992;2022-12-05T12:13:01;28.90;;;18.50;;
65871;SDS011;52653;50.080;21.992;2022-12-05T12:15:55;37.70;;;23.50;;
65871;SDS011;52653;50.080;21.992;2022-12-05T12:18:44;36.00;;;21.80;;
65871;SDS011;52653;50.080;21.992;2022-12-05T12:21:33;35.00;;;21.50;;
65871;SDS011;52653;50.080;21.992;2022-12-05T12:24:20;33.70;;;21.30;;
65871;SDS011;52653;50.080;21.992;2022-12-05T12:27:02;34.90;;;22.20;;
65871;SDS011;52653;50.080;21.992;2022-12-05T12:29:49;34.30;;;22.80;;
65871;SDS011;52653;50.080;21.992;2022-12-05T12:32:32;34.50;;;22.00;;
65871;SDS011;52653;50.080;21.992;2022-12-05T12:35:12;35.00;;;21.80;;
65871;SDS011;52653;50.080;21.992;2022-12-05T12:38:15;34.00;;;21.60;;
65871;SDS011;52653;50.080;21.992;2022-12-05T12:41:01;32.90;;;22.30;;
65871;SDS011;52653;50.080;21.992;2022-12-05T12:43:45;34.40;;;21.30;;
65871;SDS011;52653;50.080;21.992;2022-12-05T12:46:31;35.00;;;23.70;;
65871;SDS011;52653;50.080;21.992;2022-12-05T12:51:52;40.00;;;25.20;;
65871;SDS011;52653;50.080;21.992;2022-12-05T12:54:32;39.00;;;24.80;;
65871;SDS011;52653;50.080;21.992;2022-12-05T12:57:39;40.00;;;24.80;;
65871;SDS011;52653;50.080;21.992;2022-12-05T13:00:26;33.90;;;23.20;;
65871;SDS011;52653;50.080;21.992;2022-12-05T13:03:09;34.50;;;22.90;;
65871;SDS011;52653;50.080;21.992;2022-12-05T13:05:46;33.00;;;21.20;;
65871;SDS011;52653;50.080;21.992;2022-12-05T13:08:23;33.00;;;21.30;;
65871;SDS011;52653;50.080;21.992;2022-12-05T13:10:59;38.90;;;25.30;;
65871;SDS011;52653;50.080;21.992;2022-12-05T13:13:35;36.20;;;23.50;;
65871;SDS011;52653;50.080;21.992;2022-12-05T13:16:11;34.10;;;23.30;;
65871;SDS011;52653;50.080;21.992;2022-12-05T13:18:51;34.90;;;23.20;;
65871;SDS011;52653;50.080;21.992;2022-12-05T13:21:24;36.00;;;24.40;;
65871;SDS011;52653;50.080;21.992;2022-12-05T13:23:57;38.70;;;24.50;;
65871;SDS011;52653;50.080;21.992;2022-12-05T13:26:31;37.80;;;25.10;;
65871;SDS011;52653;50.080;21.992;2022-12-05T13:29:04;39.60;;;26.40;;
65871;SDS011;52653;50.080;21.992;2022-12-05T13:31:49;35.70;;;25.10;;
65871;SDS011;52653;50.080;21.992;2022-12-05T13:34:37;42.20;;;27.60;;
65871;SDS011;52653;50.080;21.992;2022-12-05T13:37:19;38.30;;;25.10;;
65871;SDS011;52653;50.080;21.992;2022-12-05T13:40:22;33.10;;;24.40;;
65871;SDS011;52653;50.080;21.992;2022-12-05T13:43:15;40.40;;;25.00;;
65871;SDS011;52653;50.080;21.992;2022-12-05T13:45:56;36.70;;;23.20;;
65871;SDS011;52653;50.080;21.992;2022-12-05T13:48:38;39.90;;;26.70;;
65871;SDS011;52653;50.080;21.992;2022-12-05T13:51:19;35.70;;;24.70;;
65871;SDS011;52653;50.080;21.992;2022-12-05T13:53:57;37.90;;;25.80;;
65871;SDS011;52653;50.080;21.992;2022-12-05T14:02:49;41.90;;;26.90;;
65871;SDS011;52653;50.080;21.992;2022-12-05T14:11:32;33.60;;;24.20;;
65871;SDS011;52653;50.080;21.992;2022-12-05T14:14:06;37.30;;;24.10;;
65871;SDS011;52653;50.080;21.992;2022-12-05T14:16:42;39.10;;;26.00;;
65871;SDS011;52653;50.080;21.992;2022-12-05T14:19:23;35.50;;;26.70;;
65871;SDS011;52653;50.080;21.992;2022-12-05T14:22:11;39.00;;;27.40;;
65871;SDS011;52653;50.080;21.992;2022-12-05T14:24:55;35.60;;;26.10;;
65871;SDS011;52653;50.080;21.992;2022-12-05T14:27:39;38.00;;;25.60;;
65871;SDS011;52653;50.080;21.992;2022-12-05T14:30:20;40.70;;;28.80;;
65871;SDS011;52653;50.080;21.992;2022-12-05T14:32:59;46.60;;;30.70;;
65871;SDS011;52653;50.080;21.992;2022-12-05T14:35:39;41.10;;;28.60;;
65871;SDS011;52653;50.080;21.992;2022-12-05T14:38:19;35.70;;;24.70;;
65871;SDS011;52653;50.080;21.992;2022-12-05T14:41:09;41.70;;;29.10;;
65871;SDS011;52653;50.080;21.992;2022-12-05T14:43:44;44.40;;;32.20;;
65871;SDS011;52653;50.080;21.992;2022-12-05T14:46:25;43.70;;;32.60;;
65871;SDS011;52653;50.080;21.992;2022-12-05T14:48:59;44.70;;;31.30;;
65871;SDS011;52653;50.080;21.992;2022-12-05T14:52:22;42.80;;;28.70;;
65871;SDS011;52653;50.080;21.992;2022-12-05T14:54:59;35.70;;;23.90;;
65871;SDS011;52653;50.080;21.992;2022-12-05T14:57:35;38.00;;;26.20;;
65871;SDS011;52653;50.080;21.992;2022-12-05T15:00:18;38.50;;;26.60;;
65871;SDS011;52653;50.080;21.992;2022-12-05T15:02:52;40.70;;;28.50;;
65871;SDS011;52653;50.080;21.992;2022-12-05T15:05:26;41.80;;;30.30;;
65871;SDS011;52653;50.080;21.992;2022-12-05T15:08:01;44.60;;;31.60;;
65871;SDS011;52653;50.080;21.992;2022-12-05T15:10:36;44.40;;;31.70;;
65871;SDS011;52653;50.080;21.992;2022-12-05T15:13:11;43.80;;;29.30;;
65871;SDS011;52653;50.080;21.992;2022-12-05T15:15:46;37.80;;;25.70;;
65871;SDS011;52653;50.080;21.992;2022-12-05T15:18:29;36.90;;;25.40;;
65871;SDS011;52653;50.080;21.992;2022-12-05T15:21:05;31.30;;;22.60;;
65871;SDS011;52653;50.080;21.992;2022-12-05T15:23:41;33.30;;;23.40;;
65871;SDS011;52653;50.080;21.992;2022-12-05T15:26:17;31.20;;;20.20;;